createdAt,value
2022-10-16T00:02:26.495Z,94767
2022-10-16T00:05:51.630Z,94768
2022-10-16T00:09:16.794Z,94762
2022-10-16T00:12:42.159Z,94771
2022-10-16T00:16:07.119Z,94773
2022-10-16T00:19:32.295Z,94773
2022-10-16T00:22:57.458Z,94768
2022-10-16T00:26:22.606Z,94764
2022-10-16T00:29:47.851Z,94770
2022-10-16T00:33:12.946Z,94779
2022-10-16T00:36:38.112Z,94785
2022-10-16T00:40:03.269Z,94772
2022-10-16T00:43:28.449Z,94780
2022-10-16T00:46:53.627Z,94783
2022-10-16T00:50:18.760Z,94781
2022-10-16T00:53:43.913Z,94778
2022-10-16T00:57:09.116Z,94773
2022-10-16T01:00:34.248Z,94775
2022-10-16T01:03:59.439Z,94776
2022-10-16T01:07:24.668Z,94785
2022-10-16T01:10:49.717Z,94789
2022-10-16T01:14:14.862Z,94784
2022-10-16T01:17:40.039Z,94779
2022-10-16T01:21:05.225Z,94785
2022-10-16T01:24:30.363Z,94775
2022-10-16T01:27:55.511Z,94773
2022-10-16T01:31:20.685Z,94781
2022-10-16T01:34:45.814Z,94787
2022-10-16T01:38:10.999Z,94799
2022-10-16T01:41:36.152Z,94805
2022-10-16T01:45:01.335Z,94803
2022-10-16T01:48:26.505Z,94804
2022-10-16T01:51:51.679Z,94801
2022-10-16T01:55:16.846Z,94798
2022-10-16T01:58:41.989Z,94797
2022-10-16T02:02:07.147Z,94793
2022-10-16T02:05:32.283Z,94797
2022-10-16T02:08:57.445Z,94795
2022-10-16T02:12:22.838Z,94800
2022-10-16T02:15:47.748Z,94800
2022-10-16T02:19:12.962Z,94796
2022-10-16T02:22:38.134Z,94800
2022-10-16T02:26:03.300Z,94811
2022-10-16T02:29:28.485Z,94816
2022-10-16T02:32:53.639Z,94807
2022-10-16T02:36:18.804Z,94810
2022-10-16T02:39:43.955Z,94815
2022-10-16T02:43:09.125Z,94819
2022-10-16T02:46:34.305Z,94819
2022-10-16T02:49:59.437Z,94805
2022-10-16T02:53:24.580Z,94791
2022-10-16T02:56:49.738Z,94794
2022-10-16T03:00:14.897Z,94790
2022-10-16T03:03:40.099Z,94790
2022-10-16T03:07:05.253Z,94797
2022-10-16T03:10:30.438Z,94802
2022-10-16T03:13:55.617Z,94787
2022-10-16T03:17:20.793Z,94797
2022-10-16T03:20:45.971Z,94799
2022-10-16T03:24:11.118Z,94802
2022-10-16T03:27:36.296Z,94806
2022-10-16T03:31:01.479Z,94803
2022-10-16T03:34:26.660Z,94803
2022-10-16T03:37:51.846Z,94804
2022-10-16T03:41:17.006Z,94801
2022-10-16T03:44:42.186Z,94800
2022-10-16T03:48:07.321Z,94801
2022-10-16T03:51:32.495Z,94796
2022-10-16T03:54:57.677Z,94808
2022-10-16T03:58:22.811Z,94810
2022-10-16T04:01:47.992Z,94812
2022-10-16T04:05:13.169Z,94808
2022-10-16T04:08:38.329Z,94838
2022-10-16T04:12:03.539Z,94834
2022-10-16T04:15:28.757Z,94847
2022-10-16T04:18:53.861Z,94850
2022-10-16T04:22:19.071Z,94849
2022-10-16T04:25:44.279Z,94854
2022-10-16T04:29:09.512Z,94852
2022-10-16T04:32:34.642Z,94854
